Barona Mesa (973) Station Data

Red Flag Warning: No
Fire Weather Zone: 250
SDGE Region: Ramona
Lat/Lon: 32.978/-116.78

Observations

Time Wind Speed/Gust Temp(F) RH Fuel Moist Fuel Temp(F) Dewpt(F) Tmax(F) Tmin(F) Accum Precip 10-min Precip SL Press(mb)
5/24 8:30am 147 5 G 9 67° 54% - - 50° 67.9° 58.2° - - -
5/24 8:20am 64 3 G 7 63° 61% - - 50° 67.9° 58.2° - - -
5/24 8:10am 145 5 G 7 61° 68% - - 51° 67.9° 58.2° - - -
5/24 8:00am 148 4 G 6 61° 71% - - 52° 67.9° 58.2° - - -
5/24 7:50am 145 5 G 6 59° 78% - - 52° 67.9° 58.2° - - -
5/24 7:40am 136 4 G 6 61° 76% - - 53° 67.9° 58.2° - - -
5/24 7:30am 39 5 G 7 62° 68% - - 51° 67.9° 58.2° - - -
5/24 7:20am 50 3 G 7 62° 70% - - 52° 67.9° 58.2° - - -
5/24 7:10am 86 3 G 5 59° 77% - - 52° 67.9° 58.2° - - -
5/24 7:00am 138 4 G 7 64° 59% - - 49° 67.9° 58.6° - - -
5/24 6:50am 179 1 G 2 66° 44% - - 44° 67.8° 60° - - -
5/24 6:40am 204 4 G 5 66° 47% - - 45° 67.8° 60° - - -
5/24 6:30am 136 4 G 7 66° 47% - - 45° 67.8° 60° - - -
5/24 6:20am 127 4 G 6 65° 48% - - 45° 67.8° 60° - - -
5/24 6:10am 136 4 G 5 65° 49% - - 45° 67.8° 60° - - -
5/24 6:00am 144 4 G 5 65° 50% - - 46° 67.8° 60° - - -
5/24 5:50am 133 3 G 4 64° 51% - - 46° 67.8° 60° - - -
5/24 5:40am 143 4 G 6 63° 54% - - 47° 67.8° 60° - - -
5/24 5:30am 147 4 G 5 62° 60% - - 48° 67.8° 60° - - -
5/24 5:20am 152 5 G 6 62° 63% - - 49° 67.8° 60° - - -
5/24 5:10am 143 5 G 6 62° 63% - - 49° 67.8° 60° - - -
5/24 5:00am 142 4 G 5 62° 67% - - 51° 67.8° 60° - - -
5/24 4:50am 151 4 G 5 62° 70% - - 52° 67.8° 60° - - -
5/24 4:40am 154 5 G 5 61° 75% - - 53° 67.8° 60° - - -
5/24 4:30am 149 5 G 6 60° 75% - - 53° 67.8° 60° - - -
5/24 4:20am 152 5 G 5 61° 74% - - 53° 67.8° 60.3° - - -
5/24 4:10am 158 4 G 4 61° 71% - - 52° 67.8° 61.1° - - -
5/24 4:00am 152 3 G 4 62° 73% - - 53° 67.8° 61.1° - - -
5/24 3:50am 147 2 G 3 62° 72% - - 53° 67.8° 61.6° - - -
5/24 3:40am 129 3 G 4 63° 66% - - 52° 67.8° 61.9° - - -
5/24 3:30am 145 3 G 3 65° 58% - - 50° 67.8° 63.3° - - -
5/24 3:20am 150 3 G 3 66° 54% - - 49° 67.8° 63.3° - - -
5/24 3:10am 161 3 G 4 66° 55% - - 49° 67.8° 63.3° - - -
5/24 3:00am 162 1 G 3 65° 57% - - 50° 67.8° 63.3° - - -
5/24 2:50am 200 1 G 2 65° 60% - - 50° 67.8° 63.3° - - -
5/24 2:40am 143 3 G 4 65° 62% - - 51° 67.8° 63.3° - - -
5/24 2:30am 143 5 G 5 65° 59% - - 51° 67.8° 63.3° - - -
5/24 2:20am 149 5 G 6 65° 60% - - 51° 67.8° 63.3° - - -
5/24 2:10am 160 5 G 6 66° 58% - - 51° 67.8° 63.3° - - -
5/24 2:00am 165 3 G 5 67° 55% - - 50° 67.8° 63.3° - - -
5/24 1:50am 165 3 G 4 67° 54% - - 50° 67.8° 63.3° - - -
5/24 1:40am 148 3 G 3 67° 54% - - 50° 67.8° 63.3° - - -
5/24 1:30am 139 3 G 5 66° 57% - - 51° 67.8° 63.3° - - -
5/24 1:20am 146 4 G 6 65° 61% - - 52° 67.8° 63.3° - - -
5/24 1:10am 156 5 G 5 65° 69% - - 54° 67.8° 63.3° - - -
5/24 1:00am 139 5 G 6 64° 71% - - 55° 67.8° 63.3° - - -
5/24 12:50am 130 6 G 7 65° 70% - - 55° 67.8° 63.3° - - -
5/24 12:40am 127 5 G 6 64° 73% - - 55° 67.8° 63.3° - - -
5/24 12:30am 132 5 G 6 64° 73% - - 55° 67.8° 63.3° - - -
5/24 12:20am 138 5 G 6 65° 69% - - 55° 67.8° 64.2° - - -
5/24 12:10am 144 5 G 6 67° 65% - - 55° 67.8° 65.8° - - -
5/24 12:00am 147 4 G 5 67° 64% - - 55° 91.7° 65.8° - - -
5/23 11:50pm 128 4 G 4 68° 62% - - 54° 91.7° 65.8° - - -
5/23 11:40pm 121 4 G 5 68° 63% - - 55° 91.7° 65.8° - - -
5/23 11:30pm 110 4 G 4 68° 63% - - 55° 91.7° 65.8° - - -
5/23 11:20pm 116 4 G 5 68° 61% - - 54° 91.7° 65.8° - - -
5/23 11:10pm 112 4 G 5 68° 63% - - 55° 91.7° 65.8° - - -
5/23 11:00pm 130 3 G 4 67° 64% - - 55° 91.7° 65.8° - - -
5/23 10:50pm 120 4 G 4 68° 61% - - 55° 91.7° 65.8° - - -
5/23 10:40pm 97 4 G 5 69° 60% - - 55° 91.7° 65.8° - - -
5/23 10:30pm 91 3 G 4 68° 61% - - 55° 91.7° 65.8° - - -
5/23 10:20pm 97 4 G 4 68° 61% - - 55° 91.7° 65.8° - - -
5/23 10:10pm 95 4 G 5 69° 60% - - 55° 91.7° 65.8° - - -
5/23 10:00pm 91 4 G 5 69° 60% - - 55° 91.7° 65.8° - - -
5/23 9:50pm 85 3 G 4 70° 57% - - 54° 91.7° 65.8° - - -
5/23 9:40pm 74 3 G 4 70° 56% - - 53° 91.7° 65.8° - - -
5/23 9:30pm 49 0 G 2 70° 55% - - 53° 91.7° 65.8° - - -
5/23 9:20pm 236 2 G 5 70° 54% - - 53° 91.7° 65.8° - - -
5/23 9:10pm 237 2 G 4 69° 59% - - 54° 91.7° 65.8° - - -
5/23 9:00pm 264 5 G 6 70° 59% - - 55° 91.7° 65.8° - - -
5/23 8:50pm 279 5 G 6 71° 56% - - 54° 91.7° 65.8° - - -
5/23 8:40pm 296 4 G 5 72° 54% - - 55° 91.7° 65.8° - - -
5/23 8:30pm 296 4 G 5 72° 53% - - 54° 91.7° 65.8° - - -
5/23 8:20pm 306 4 G 5 74° 50% - - 54° 91.7° 65.8° - - -
5/23 8:10pm 296 3 G 4 74° 50% - - 54° 91.7° 65.8° - - -
5/23 8:00pm 314 2 G 3 75° 49% - - 54° 91.7° 65.8° - - -
5/23 7:50pm 330 3 G 4 75° 47% - - 54° 91.7° 65.8° - - -
5/23 7:40pm 305 2 G 4 76° 46% - - 54° 91.7° 65.8° - - -
5/23 7:30pm 276 2 G 5 77° 45% - - 54° 91.7° 65.8° - - -
5/23 7:20pm 296 4 G 7 77° 44% - - 54° 91.7° 65.8° - - -
5/23 7:10pm 283 5 G 7 79° 42% - - 54° 91.7° 65.8° - - -
5/23 7:00pm 268 5 G 8 80° 39% - - 53° 91.7° 65.8° - - -
5/23 6:50pm 264 7 G 12 81° 36% - - 52° 91.7° 65.8° - - -
5/23 6:40pm 283 8 G 12 83° 33% - - 51° 91.7° 65.8° - - -
5/23 6:30pm 283 7 G 11 83° 32% - - 51° 91.7° 65.8° - - -
5/23 6:20pm 281 7 G 11 84° 30% - - 49° 91.7° 65.8° - - -
5/23 6:10pm 287 6 G 9 85° 29% - - 49° 91.7° 65.8° - - -
5/23 6:00pm 272 6 G 9 84° 28% - - 48° 91.7° 65.8° - - -
5/23 5:50pm 278 6 G 10 84° 28% - - 47° 91.7° 65.8° - - -
5/23 5:40pm 294 6 G 9 84° 27% - - 47° 91.7° 65.8° - - -
5/23 5:30pm 292 5 G 10 84° 28% - - 47° 91.7° 65.8° - - -
5/23 5:20pm 313 5 G 9 84° 27% - - 47° 91.7° 65.8° - - -
5/23 5:10pm 293 6 G 11 84° 26% - - 46° 91.7° 65.8° - - -
5/23 5:00pm 313 6 G 12 84° 26% - - 46° 91.7° 65.8° - - -
5/23 4:50pm 316 7 G 12 84° 27% - - 47° 91.7° 65.8° - - -
5/23 4:40pm 315 8 G 14 84° 29% - - 48° 91.7° 65.8° - - -
5/23 4:30pm 319 7 G 13 84° 30% - - 49° 91.7° 65.8° - - -
5/23 4:20pm 311 6 G 11 84° 32% - - 51° 91.7° 65.8° - - -
5/23 4:10pm 301 7 G 11 82° 37% - - 53° 91.7° 65.8° - - -
5/23 4:00pm 315 8 G 12 82° 39% - - 55° 91.7° 65.8° - - -
5/23 3:50pm 298 8 G 13 82° 41% - - 56° 91.7° 65.8° - - -
5/23 3:40pm 276 6 G 10 83° 41% - - 56° 91.7° 65.8° - - -
5/23 3:30pm 267 6 G 11 82° 41% - - 56° 91.7° 65.8° - - -
5/23 3:20pm 289 7 G 13 81° 43% - - 57° 91.7° 65.8° - - -
5/23 3:10pm 303 9 G 14 81° 45% - - 58° 91.7° 65.8° - - -
5/23 3:00pm 295 9 G 14 81° 44% - - 57° 91.7° 65.8° - - -
5/23 2:50pm 297 8 G 14 82° 44% - - 58° 91.7° 65.8° - - -
5/23 2:40pm 299 10 G 15 82° 45% - - 58° 91.7° 65.8° - - -
5/23 2:30pm 287 8 G 13 82° 45% - - 59° 91.7° 65.8° - - -
5/23 2:20pm 296 10 G 16 82° 46% - - 59° 91.7° 65.8° - - -
5/23 2:10pm 293 9 G 14 83° 44% - - 59° 91.7° 65.8° - - -
5/23 2:00pm 286 7 G 12 83° 44% - - 58° 91.7° 65.8° - - -
5/23 1:50pm 290 10 G 15 83° 43% - - 59° 91.7° 65.8° - - -
5/23 1:40pm 296 8 G 12 85° 41% - - 59° 91.7° 65.8° - - -
5/23 1:30pm 294 8 G 12 84° 42% - - 58° 91.7° 65.8° - - -
5/23 1:20pm 297 9 G 14 85° 40% - - 58° 91.7° 65.8° - - -
5/23 1:10pm 299 9 G 13 86° 37% - - 57° 91.7° 65.8° - - -
5/23 1:00pm 287 8 G 12 87° 35% - - 56° 91.7° 65.8° - - -
5/23 12:50pm 294 7 G 10 88° 32% - - 54° 91.7° 65.8° - - -
5/23 12:40pm 257 9 G 14 87° 34% - - 55° 91.7° 65.8° - - -
5/23 12:30pm 260 8 G 15 89° 29% - - 52° 91.7° 65.8° - - -
5/23 12:20pm 280 6 G 11 89° 26% - - 50° 91.7° 65.8° - - -
5/23 12:10pm 275 6 G 11 89° 27% - - 51° 91.7° 65.8° - - -
5/23 12:00pm 264 7 G 14 89° 27% - - 51° 91.7° 65.8° - - -
5/23 11:50am 262 8 G 16 90° 26% - - 50° 91.7° 65.8° - - -
5/23 11:40am 272 5 G 8 91° 23% - - 48° 91.7° 65.8° - - -
5/23 11:30am 314 3 G 8 90° 24% - - 49° 91.7° 65.8° - - -
5/23 11:20am 308 2 G 9 89° 25% - - 48° 90.2° 65.8° - - -
5/23 11:10am 281 3 G 8 89° 26% - - 49° 90.2° 65.8° - - -
5/23 11:00am 309 2 G 5 89° 25% - - 49° 89.9° 65.8° - - -
5/23 10:50am 136 2 G 5 87° 27% - - 49° 89.2° 65.8° - - -
5/23 10:40am 144 2 G 5 86° 27% - - 49° 87.8° 65.8° - - -
5/23 10:30am 96 2 G 5 85° 29% - - 49° 85.6° 65.8° - - -
5/23 10:20am 126 3 G 5 84° 31% - - 50° 84.7° 65.8° - - -
5/23 10:10am 113 3 G 6 83° 32% - - 50° 83.7° 65.8° - - -
5/23 10:00am 114 2 G 6 83° 33% - - 50° 83.5° 65.8° - - -
5/23 9:50am 150 2 G 5 82° 34% - - 51° 82.9° 65.8° - - -
5/23 9:40am 127 2 G 4 81° 35% - - 51° 82° 65.8° - - -
5/23 9:30am 122 3 G 5 79° 37% - - 51° 80° 65.8° - - -
5/23 9:20am 134 2 G 4 78° 39% - - 51° 79.1° 65.8° - - -
5/23 9:10am 149 2 G 4 77° 41% - - 51° 77.5° 65.8° - - -
5/23 9:00am 155 3 G 5 75° 44% - - 52° 77.2° 65.8° - - -
5/23 8:50am 126 3 G 5 76° 44% - - 53° 77.2° 65.8° - - -
5/23 8:40am 101 3 G 5 77° 39% - - 50° 77.1° 65.8° - - -
5/23 8:30am 130 2 G 3 75° 37% - - 47° 76.6° 65.8° - - -
5/23 8:20am 164 2 G 3 73° 47% - - 51° 76.6° 65.8° - - -
5/23 8:10am 151 4 G 5 74° 46% - - 51° 76.6° 65.8° - - -
5/23 8:00am 45 1 G 4 76° 30% - - 43° 76.6° 65.8° - - -
5/23 7:50am 43 0 G 2 75° 33% - - 44° 76.2° 65.8° - - -
5/23 7:40am 145 1 G 2 74° 36% - - 45° 74.4° 65.8° - - -
5/23 7:30am 164 0 G 2 73° 35% - - 44° 73.7° 65.8° - - -
5/23 7:20am 157 1 G 2 72° 37% - - 44° 72.9° 65.8° - - -
5/23 7:10am 160 2 G 3 71° 39% - - 45° 71.3° 65.8° - - -
5/23 7:00am 143 1 G 2 71° 38% - - 44° 71.3° 65.8° - - -
5/23 6:50am 138 2 G 3 70° 38% - - 43° 70.8° 65.8° - - -
5/23 6:40am 134 2 G 3 69° 38% - - 42° 70.3° 65.8° - - -
5/23 6:30am 151 3 G 4 69° 38% - - 42° 70.3° 65.8° - - -
5/23 6:20am 175 4 G 4 68° 39% - - 42° 70.3° 65.8° - - -
5/23 6:10am 155 3 G 4 69° 36% - - 41° 70.3° 65.8° - - -
5/23 6:00am 150 2 G 2 69° 35% - - 41° 70.3° 65.8° - - -